Time;durP1;ratioP1;P1;durP2;ratioP2;P2;SDS_P1;SDS_P2;PMS_P1;PMS_P2;Temp;Humidity;BMP_temperature;BMP_pressure;BME280_temperature;BME280_humidity;BME280_pressure;Samples;Min_cycle;Max_cycle;Signal;HPM_P1;HPM_P2
2024/04/19 00:00:36;;;;;;;;;18.67;17.67;;;;;;;;5439777;26;44179;-78
2024/04/19 00:03:01;;;;;;;;;16.00;14.00;;;;;;;;5443104;26;43708;-78
2024/04/19 00:05:26;;;;;;;;;15.00;14.00;;;;;;;;5438151;26;43778;-78
2024/04/19 00:07:51;;;;;;;;;21.00;18.00;;;;;;;;5441261;26;43652;-78
2024/04/19 00:10:16;;;;;;;;;16.33;16.33;;;;;;;;5443293;26;43732;-78
2024/04/19 00:12:42;;;;;;;;;17.00;16.67;;;;;;;;5441231;26;43988;-78
2024/04/19 00:15:07;;;;;;;;;14.67;14.67;;;;;;;;5440615;26;44428;-78
2024/04/19 00:17:34;;;;;;;;;19.67;16.33;;;;;;;;5439187;26;43718;-78
2024/04/19 00:19:59;;;;;;;;;17.33;17.33;;;;;;;;5441774;26;43886;-78
2024/04/19 00:22:24;;;;;;;;;16.00;16.00;;;;;;;;5438543;26;43906;-77
2024/04/19 00:24:49;;;;;;;;;14.00;14.00;;;;;;;;5439564;26;43835;-78
2024/04/19 00:27:14;;;;;;;;;14.00;13.00;;;;;;;;5437465;26;44001;-78
2024/04/19 00:29:40;;;;;;;;;14.67;13.00;;;;;;;;5438746;26;43892;-78
2024/04/19 00:32:05;;;;;;;;;12.00;10.67;;;;;;;;5435085;26;45870;-78
2024/04/19 00:34:30;;;;;;;;;12.33;10.67;;;;;;;;5436221;26;44438;-78
2024/04/19 00:36:55;;;;;;;;;13.00;12.67;;;;;;;;5438478;26;43965;-78
2024/04/19 00:39:21;;;;;;;;;13.00;10.33;;;;;;;;5436292;26;44693;-78
2024/04/19 00:41:46;;;;;;;;;11.67;11.67;;;;;;;;5437573;26;44781;-78
2024/04/19 00:44:11;;;;;;;;;11.67;10.00;;;;;;;;5434587;26;44007;-78
2024/04/19 00:46:37;;;;;;;;;10.33;10.33;;;;;;;;5438044;26;44045;-78
2024/04/19 00:49:02;;;;;;;;;10.67;10.67;;;;;;;;5434334;26;45081;-78
2024/04/19 00:51:27;;;;;;;;;12.00;11.00;;;;;;;;5435838;26;45852;-78
2024/04/19 00:53:52;;;;;;;;;11.00;10.33;;;;;;;;5438888;26;43821;-78
2024/04/19 00:56:19;;;;;;;;;11.00;10.00;;;;;;;;5435757;26;43944;-78
2024/04/19 00:58:44;;;;;;;;;10.67;10.00;;;;;;;;5470425;26;44888;-78
2024/04/19 01:01:10;;;;;;;;;8.00;8.00;;;;;;;;5473468;26;43647;-78
2024/04/19 01:03:35;;;;;;;;;10.00;9.00;;;;;;;;5471599;25;43977;-78
2024/04/19 01:06:01;;;;;;;;;11.00;10.00;;;;;;;;5471170;25;43835;-77
2024/04/19 01:08:29;;;;;;;;;10.33;10.33;;;;;;;;5473063;26;43635;-78
2024/04/19 01:10:54;;;;;;;;;10.67;9.00;;;;;;;;5471511;25;43916;-77
2024/04/19 01:13:19;;;;;;;;;10.67;10.67;;;;;;;;5470087;25;43813;-78
2024/04/19 01:15:45;;;;;;;;;10.00;10.00;;;;;;;;5468922;26;44072;-78
2024/04/19 01:18:10;;;;;;;;;9.00;8.67;;;;;;;;5470515;26;43824;-77
2024/04/19 01:20:35;;;;;;;;;10.00;10.00;;;;;;;;5470413;26;43808;-78
2024/04/19 01:23:01;;;;;;;;;4.33;3.67;;;;;;;;5469672;25;43793;-78
2024/04/19 01:25:31;;;;;;;;;9.00;8.67;;;;;;;;5469931;25;43844;-78
2024/04/19 01:27:56;;;;;;;;;9.00;8.00;;;;;;;;5469150;26;46245;-78
2024/04/19 01:30:21;;;;;;;;;9.67;9.00;;;;;;;;5471757;26;45660;-78
2024/04/19 01:32:46;;;;;;;;;3.33;3.33;;;;;;;;5473130;26;43804;-78
2024/04/19 01:35:12;;;;;;;;;7.33;7.00;;;;;;;;5443482;26;43716;-78
2024/04/19 01:37:37;;;;;;;;;8.00;7.00;;;;;;;;5437503;26;43839;-77
2024/04/19 01:40:02;;;;;;;;;7.67;6.00;;;;;;;;5433969;26;46093;-78
2024/04/19 01:42:27;;;;;;;;;8.33;8.33;;;;;;;;5434561;26;44846;-78
2024/04/19 01:44:52;;;;;;;;;8.33;8.33;;;;;;;;5436102;26;43923;-78
2024/04/19 01:47:18;;;;;;;;;10.00;9.00;;;;;;;;5438200;26;43754;-78
2024/04/19 01:49:43;;;;;;;;;8.67;8.00;;;;;;;;5434854;26;45833;-78
2024/04/19 01:52:08;;;;;;;;;9.67;9.00;;;;;;;;5436647;26;43967;-78
2024/04/19 01:54:33;;;;;;;;;9.00;9.00;;;;;;;;5435845;26;43789;-78
2024/04/19 01:57:01;;;;;;;;;7.00;7.00;;;;;;;;5440957;26;45901;-77
2024/04/19 01:59:28;;;;;;;;;8.67;8.00;;;;;;;;5471512;26;45926;-78
2024/04/19 02:01:53;;;;;;;;;7.67;6.67;;;;;;;;5473084;26;43977;-78
2024/04/19 02:04:18;;;;;;;;;8.33;7.67;;;;;;;;5473435;26;43810;-78
2024/04/19 02:06:44;;;;;;;;;8.33;8.33;;;;;;;;5475085;26;43629;-78
2024/04/19 02:09:09;;;;;;;;;4.00;4.00;;;;;;;;5474134;26;46990;-78
2024/04/19 02:11:34;;;;;;;;;7.00;7.00;;;;;;;;5476545;26;44230;-78
2024/04/19 02:13:59;;;;;;;;;8.00;8.00;;;;;;;;5472128;26;44261;-78
2024/04/19 02:16:24;;;;;;;;;8.33;7.00;;;;;;;;5473888;26;44244;-78
2024/04/19 02:18:49;;;;;;;;;6.67;5.67;;;;;;;;5473826;26;44633;-78
2024/04/19 02:21:15;;;;;;;;;4.33;4.33;;;;;;;;5475518;26;43990;-78
2024/04/19 02:23:41;;;;;;;;;6.00;6.00;;;;;;;;5472231;26;43951;-78
2024/04/19 02:26:07;;;;;;;;;5.33;5.33;;;;;;;;5474292;25;43780;-78
2024/04/19 02:31:17;;;;;;;;;6.67;6.67;;;;;;;;5472211;26;43941;-78
2024/04/19 02:33:44;;;;;;;;;6.00;5.67;;;;;;;;5474201;26;43766;-78
2024/04/19 02:36:09;;;;;;;;;4.33;4.33;;;;;;;;5473404;25;43989;-78
2024/04/19 02:38:36;;;;;;;;;2.33;2.33;;;;;;;;5471446;26;43912;-79
2024/04/19 02:41:01;;;;;;;;;4.33;4.33;;;;;;;;5470955;26;43848;-78
2024/04/19 02:43:26;;;;;;;;;5.00;5.00;;;;;;;;5473179;26;44004;-79
2024/04/19 02:45:52;;;;;;;;;4.67;4.67;;;;;;;;5472916;26;44688;-78
2024/04/19 02:48:17;;;;;;;;;6.33;5.00;;;;;;;;5471806;26;45809;-78
2024/04/19 02:50:42;;;;;;;;;4.67;3.33;;;;;;;;5475005;26;43277;-78
2024/04/19 02:53:07;;;;;;;;;5.67;5.67;;;;;;;;5475018;26;44345;-78
2024/04/19 02:55:33;;;;;;;;;6.00;6.00;;;;;;;;5473726;26;43993;-78
2024/04/19 02:57:58;;;;;;;;;5.00;4.00;;;;;;;;5450657;26;46003;-78
2024/04/19 03:00:23;;;;;;;;;5.33;4.67;;;;;;;;5438944;26;43826;-78
2024/04/19 03:02:48;;;;;;;;;4.67;4.67;;;;;;;;5438337;26;43888;-78
2024/04/19 03:05:13;;;;;;;;;5.00;5.00;;;;;;;;5438730;26;43731;-78
2024/04/19 03:07:39;;;;;;;;;3.00;1.67;;;;;;;;5436358;26;45673;-78
2024/04/19 03:10:04;;;;;;;;;5.00;5.00;;;;;;;;5437590;26;43760;-78
2024/04/19 03:12:29;;;;;;;;;6.67;4.00;;;;;;;;5439406;26;44525;-78
2024/04/19 03:14:54;;;;;;;;;4.33;4.33;;;;;;;;5440119;26;43930;-78
2024/04/19 03:17:20;;;;;;;;;5.67;5.67;;;;;;;;5437875;26;44690;-79
2024/04/19 03:19:45;;;;;;;;;4.67;4.67;;;;;;;;5438467;26;43627;-78
2024/04/19 03:22:10;;;;;;;;;5.00;5.00;;;;;;;;5439157;26;43761;-78
2024/04/19 03:24:35;;;;;;;;;4.67;4.67;;;;;;;;5437414;26;45742;-78
2024/04/19 03:27:01;;;;;;;;;3.67;3.67;;;;;;;;5439180;26;43733;-78
2024/04/19 03:29:26;;;;;;;;;6.00;4.33;;;;;;;;5436597;26;43802;-78
2024/04/19 03:31:51;;;;;;;;;7.00;6.00;;;;;;;;5439220;26;43713;-78
2024/04/19 03:34:17;;;;;;;;;5.00;4.00;;;;;;;;5436164;26;43905;-78
2024/04/19 03:36:42;;;;;;;;;4.67;4.33;;;;;;;;5436339;26;44575;-77
2024/04/19 03:39:09;;;;;;;;;6.00;6.00;;;;;;;;5438741;26;43761;-78
2024/04/19 03:41:34;;;;;;;;;6.33;5.67;;;;;;;;5435013;26;43880;-79
2024/04/19 03:46:46;;;;;;;;;4.67;4.67;;;;;;;;5435704;26;44537;-78
2024/04/19 03:49:11;;;;;;;;;6.33;6.00;;;;;;;;5438450;26;43829;-78
2024/04/19 03:51:37;;;;;;;;;6.33;5.00;;;;;;;;5439538;26;43946;-78
2024/04/19 03:54:02;;;;;;;;;5.33;5.33;;;;;;;;5433264;26;46047;-78
2024/04/19 03:56:27;;;;;;;;;6.33;6.33;;;;;;;;5438180;26;44067;-78
2024/04/19 03:58:53;;;;;;;;;8.00;6.00;;;;;;;;5472338;26;43913;-78
2024/04/19 04:01:18;;;;;;;;;7.00;7.00;;;;;;;;5470011;26;43876;-78
2024/04/19 04:03:43;;;;;;;;;6.00;5.67;;;;;;;;5436059;26;43997;-79
2024/04/19 04:06:08;;;;;;;;;3.33;3.33;;;;;;;;5436875;26;43884;-78
2024/04/19 04:08:33;;;;;;;;;3.33;3.33;;;;;;;;5435347;26;43890;-78
2024/04/19 04:11:00;;;;;;;;;5.00;5.00;;;;;;;;5438180;26;43940;-78
2024/04/19 04:13:25;;;;;;;;;5.33;5.33;;;;;;;;5437279;26;43844;-78
2024/04/19 04:15:50;;;;;;;;;4.67;4.00;;;;;;;;5436218;26;45957;-78
2024/04/19 04:18:17;;;;;;;;;4.00;3.00;;;;;;;;5437444;26;43985;-79
2024/04/19 04:20:42;;;;;;;;;4.00;4.00;;;;;;;;5440097;26;43923;-78
2024/04/19 04:23:08;;;;;;;;;6.00;4.00;;;;;;;;5437803;26;43732;-78
2024/04/19 04:25:34;;;;;;;;;4.00;4.00;;;;;;;;5437413;26;45655;-78
2024/04/19 04:27:59;;;;;;;;;5.00;5.00;;;;;;;;5441035;26;43914;-78
2024/04/19 04:30:25;;;;;;;;;4.00;4.00;;;;;;;;5438612;26;44051;-78
2024/04/19 04:32:50;;;;;;;;;3.00;3.00;;;;;;;;5440458;26;44229;-77
2024/04/19 04:35:15;;;;;;;;;5.00;4.33;;;;;;;;5441214;26;43919;-78
2024/04/19 04:37:40;;;;;;;;;4.00;4.00;;;;;;;;5437496;26;43805;-78
2024/04/19 04:40:06;;;;;;;;;3.00;3.00;;;;;;;;5440610;26;43934;-78
2024/04/19 04:42:31;;;;;;;;;5.00;4.00;;;;;;;;5440648;26;43820;-78
2024/04/19 04:44:56;;;;;;;;;4.00;4.00;;;;;;;;5438603;26;44002;-77
2024/04/19 04:47:21;;;;;;;;;3.33;3.33;;;;;;;;5436488;26;43941;-78
2024/04/19 04:49:46;;;;;;;;;3.33;3.33;;;;;;;;5434111;26;43907;-77
2024/04/19 04:52:12;;;;;;;;;5.00;4.00;;;;;;;;5433907;26;43890;-77
2024/04/19 04:54:37;;;;;;;;;3.00;3.00;;;;;;;;5436690;26;43982;-78
2024/04/19 04:57:07;;;;;;;;;3.00;3.00;;;;;;;;5445583;26;43915;-78
2024/04/19 04:59:32;;;;;;;;;1.00;1.00;;;;;;;;5467596;26;43968;-78
2024/04/19 05:01:57;;;;;;;;;3.33;3.00;;;;;;;;5472923;26;43655;-78
2024/04/19 05:04:22;;;;;;;;;3.00;3.00;;;;;;;;5471250;26;43907;-79
2024/04/19 05:06:48;;;;;;;;;3.33;3.33;;;;;;;;5464199;26;43934;-78
2024/04/19 05:09:13;;;;;;;;;3.00;3.00;;;;;;;;5466541;26;44083;-78
2024/04/19 05:11:38;;;;;;;;;2.33;2.33;;;;;;;;5466545;26;43785;-78
2024/04/19 05:14:03;;;;;;;;;3.33;3.33;;;;;;;;5467037;26;44905;-80
2024/04/19 05:16:28;;;;;;;;;5.00;5.00;;;;;;;;5466634;26;44015;-80
2024/04/19 05:18:55;;;;;;;;;5.33;5.00;;;;;;;;5464121;26;43953;-79
2024/04/19 05:21:20;;;;;;;;;7.00;5.67;;;;;;;;5466273;25;43806;-79
2024/04/19 05:23:47;;;;;;;;;4.00;4.00;;;;;;;;5464264;26;45565;-79
2024/04/19 05:26:13;;;;;;;;;3.33;3.33;;;;;;;;5433051;26;43960;-80
2024/04/19 05:28:38;;;;;;;;;3.33;3.33;;;;;;;;5427849;26;43900;-80
2024/04/19 05:31:03;;;;;;;;;4.33;4.33;;;;;;;;5431605;26;43863;-78
2024/04/19 05:33:28;;;;;;;;;3.33;3.33;;;;;;;;5427180;26;43839;-78
2024/04/19 05:35:54;;;;;;;;;6.33;5.67;;;;;;;;5396391;26;43889;-77
2024/04/19 05:38:19;;;;;;;;;5.33;5.00;;;;;;;;5398037;26;43787;-77
2024/04/19 05:40:44;;;;;;;;;6.33;6.00;;;;;;;;5397204;26;43947;-77
2024/04/19 05:43:09;;;;;;;;;4.00;4.00;;;;;;;;5398875;26;43907;-78
2024/04/19 05:45:35;;;;;;;;;5.00;5.00;;;;;;;;5397470;26;43990;-78
2024/04/19 05:48:00;;;;;;;;;6.00;5.00;;;;;;;;5398445;26;43943;-80
2024/04/19 05:50:26;;;;;;;;;2.00;2.00;;;;;;;;5395036;26;44741;-79
2024/04/19 05:52:51;;;;;;;;;6.33;6.33;;;;;;;;5398323;26;44009;-79
2024/04/19 05:55:17;;;;;;;;;3.00;3.00;;;;;;;;5399824;26;43864;-79
2024/04/19 05:57:43;;;;;;;;;5.00;5.00;;;;;;;;5435068;26;43953;-79
2024/04/19 06:00:08;;;;;;;;;4.67;4.00;;;;;;;;5467165;26;44919;-79
2024/04/19 06:02:33;;;;;;;;;4.00;3.67;;;;;;;;5467418;25;44727;-80
2024/04/19 06:04:58;;;;;;;;;4.33;4.33;;;;;;;;5467252;26;43993;-78
2024/04/19 06:07:24;;;;;;;;;5.00;5.00;;;;;;;;5469841;26;43765;-78
2024/04/19 06:09:49;;;;;;;;;4.67;4.67;;;;;;;;5464959;26;44878;-79
2024/04/19 06:12:14;;;;;;;;;4.00;4.00;;;;;;;;5467463;26;44697;-81
2024/04/19 06:14:40;;;;;;;;;4.00;4.00;;;;;;;;5469840;25;43830;-79
2024/04/19 06:17:05;;;;;;;;;5.00;5.00;;;;;;;;5471741;26;44104;-79
2024/04/19 06:19:30;;;;;;;;;3.67;3.67;;;;;;;;5448158;26;43914;-79
2024/04/19 06:21:55;;;;;;;;;5.00;4.67;;;;;;;;5433114;26;44654;-78
2024/04/19 06:24:21;;;;;;;;;3.00;3.00;;;;;;;;5432489;26;43952;-77
2024/04/19 06:26:46;;;;;;;;;4.67;4.67;;;;;;;;5435603;26;44082;-78
2024/04/19 06:29:12;;;;;;;;;6.00;4.00;;;;;;;;5437913;26;43854;-75
2024/04/19 06:31:37;;;;;;;;;2.00;2.00;;;;;;;;5405225;26;46919;-77
2024/04/19 06:34:02;;;;;;;;;4.67;4.33;;;;;;;;5396434;26;43269;-78
2024/04/19 06:36:28;;;;;;;;;3.33;3.33;;;;;;;;5400098;26;43977;-78
2024/04/19 06:38:53;;;;;;;;;4.00;4.00;;;;;;;;5398473;26;44103;-77
2024/04/19 06:41:18;;;;;;;;;3.00;3.00;;;;;;;;5394905;26;45024;-79
2024/04/19 06:43:43;;;;;;;;;7.67;7.67;;;;;;;;5409489;26;44073;-78
2024/04/19 06:46:09;;;;;;;;;4.33;3.67;;;;;;;;5426551;26;43762;-79
2024/04/19 06:48:34;;;;;;;;;6.00;6.00;;;;;;;;5428918;26;44936;-79
2024/04/19 06:50:59;;;;;;;;;3.33;3.33;;;;;;;;5428569;26;45781;-79
2024/04/19 06:53:24;;;;;;;;;5.67;3.00;;;;;;;;5429498;26;43864;-79
2024/04/19 06:55:52;;;;;;;;;5.00;4.00;;;;;;;;5430759;26;44085;-79
2024/04/19 06:58:17;;;;;;;;;5.00;5.00;;;;;;;;5460243;26;43753;-79
2024/04/19 07:00:42;;;;;;;;;4.00;4.00;;;;;;;;5465395;26;45257;-79
2024/04/19 07:03:08;;;;;;;;;6.67;6.00;;;;;;;;5467128;26;43846;-80
2024/04/19 07:05:33;;;;;;;;;4.00;4.00;;;;;;;;5466877;26;44071;-78
2024/04/19 07:07:58;;;;;;;;;3.00;3.00;;;;;;;;5450103;26;44518;-79
2024/04/19 07:10:23;;;;;;;;;4.00;4.00;;;;;;;;5414225;26;46630;-77
2024/04/19 07:12:50;;;;;;;;;4.33;4.00;;;;;;;;5430123;26;43939;-79
2024/04/19 07:15:15;;;;;;;;;5.00;5.00;;;;;;;;5430866;26;44050;-78
2024/04/19 07:17:41;;;;;;;;;5.00;4.33;;;;;;;;5434001;26;44029;-76
2024/04/19 07:20:06;;;;;;;;;7.00;5.00;;;;;;;;5430996;26;43904;-79
2024/04/19 07:22:31;;;;;;;;;4.67;4.67;;;;;;;;5430277;26;44854;-77
2024/04/19 07:24:56;;;;;;;;;5.00;5.00;;;;;;;;5435465;26;43895;-77
2024/04/19 07:27:21;;;;;;;;;6.00;6.00;;;;;;;;5433495;26;43900;-77
2024/04/19 07:29:47;;;;;;;;;5.00;4.00;;;;;;;;5428838;26;45708;-79
2024/04/19 07:32:12;;;;;;;;;5.67;5.00;;;;;;;;5432198;26;43979;-78
2024/04/19 07:34:37;;;;;;;;;7.00;5.33;;;;;;;;5432916;26;43922;-78
2024/04/19 07:37:02;;;;;;;;;4.00;4.00;;;;;;;;5428942;26;45876;-78
2024/04/19 07:39:27;;;;;;;;;6.00;6.00;;;;;;;;5429918;26;45743;-78
2024/04/19 07:41:53;;;;;;;;;5.00;5.00;;;;;;;;5428661;26;43818;-78
2024/04/19 07:44:18;;;;;;;;;6.00;6.00;;;;;;;;5430500;26;44081;-79
2024/04/19 07:46:43;;;;;;;;;7.00;7.00;;;;;;;;5465245;26;45806;-77
2024/04/19 07:49:08;;;;;;;;;9.67;5.00;;;;;;;;5443773;26;44760;-78
2024/04/19 07:51:33;;;;;;;;;8.67;5.33;;;;;;;;5431301;26;43919;-78
2024/04/19 07:53:59;;;;;;;;;7.33;7.33;;;;;;;;5425121;26;43855;-78
2024/04/19 07:56:25;;;;;;;;;5.67;5.00;;;;;;;;5397690;26;43764;-78
2024/04/19 07:58:50;;;;;;;;;5.33;5.33;;;;;;;;5407071;26;43953;-77
2024/04/19 08:01:15;;;;;;;;;6.00;6.00;;;;;;;;5430036;26;43743;-78
2024/04/19 08:03:41;;;;;;;;;6.00;6.00;;;;;;;;5433103;26;43855;-78
2024/04/19 08:06:06;;;;;;;;;7.33;7.00;;;;;;;;5429318;26;43924;-77
2024/04/19 08:08:31;;;;;;;;;5.33;5.33;;;;;;;;5427716;26;45915;-75
2024/04/19 08:10:57;;;;;;;;;6.33;6.33;;;;;;;;5427956;26;43835;-75
2024/04/19 08:13:24;;;;;;;;;5.67;5.67;;;;;;;;5433971;26;44049;-76
2024/04/19 08:15:49;;;;;;;;;9.00;8.67;;;;;;;;5431779;26;43831;-75
2024/04/19 08:18:14;;;;;;;;;7.00;7.00;;;;;;;;5429209;26;44691;-76
2024/04/19 08:20:40;;;;;;;;;7.00;7.00;;;;;;;;5426276;26;44435;-76
2024/04/19 08:23:05;;;;;;;;;6.33;6.33;;;;;;;;5427600;26;43806;-77
2024/04/19 08:25:30;;;;;;;;;5.67;5.67;;;;;;;;5430869;26;44683;-77
2024/04/19 08:27:55;;;;;;;;;9.00;6.00;;;;;;;;5432739;26;45278;-78
2024/04/19 08:30:20;;;;;;;;;6.00;6.00;;;;;;;;5428181;26;43998;-76
2024/04/19 08:32:47;;;;;;;;;6.33;5.00;;;;;;;;5430098;26;44030;-76
2024/04/19 08:35:12;;;;;;;;;7.00;6.00;;;;;;;;5432265;26;43950;-75
2024/04/19 08:37:37;;;;;;;;;8.33;7.00;;;;;;;;5434418;26;46969;-77
2024/04/19 08:40:03;;;;;;;;;6.33;6.33;;;;;;;;5431654;26;44499;-75
2024/04/19 08:42:29;;;;;;;;;6.67;6.00;;;;;;;;5430690;26;44243;-76
2024/04/19 08:44:54;;;;;;;;;5.67;4.00;;;;;;;;5419254;26;44249;-77
2024/04/19 08:47:19;;;;;;;;;6.33;5.33;;;;;;;;5439243;26;44056;-78
2024/04/19 08:49:45;;;;;;;;;8.00;6.33;;;;;;;;5437756;26;44013;-76
2024/04/19 08:52:10;;;;;;;;;9.33;6.33;;;;;;;;5415553;26;43883;-75
2024/04/19 08:54:36;;;;;;;;;6.00;6.00;;;;;;;;5423029;26;44036;-77
2024/04/19 08:57:01;;;;;;;;;6.00;4.67;;;;;;;;5441703;26;44362;-77
2024/04/19 08:59:36;;;;;;;;;6.00;5.67;;;;;;;;5449212;26;44335;-80
2024/04/19 09:02:02;;;;;;;;;8.00;7.00;;;;;;;;5435893;26;43834;-79
2024/04/19 09:04:27;;;;;;;;;6.00;6.00;;;;;;;;5433959;26;44335;-78
2024/04/19 09:06:52;;;;;;;;;7.33;7.33;;;;;;;;5436349;26;45924;-77
2024/04/19 09:09:17;;;;;;;;;6.67;5.67;;;;;;;;5436206;26;43735;-79
2024/04/19 09:11:48;;;;;;;;;6.67;6.67;;;;;;;;5415556;26;43764;-79
2024/04/19 09:14:13;;;;;;;;;9.33;6.33;;;;;;;;5434266;26;46111;-79
2024/04/19 09:16:38;;;;;;;;;6.00;6.00;;;;;;;;5439279;26;44155;-80
2024/04/19 09:19:06;;;;;;;;;9.33;7.00;;;;;;;;5435251;26;43883;-77
2024/04/19 09:21:31;;;;;;;;;8.00;8.00;;;;;;;;5438887;26;43778;-81
2024/04/19 09:23:56;;;;;;;;;8.00;8.00;;;;;;;;5439655;26;44955;-77
2024/04/19 09:26:22;;;;;;;;;7.67;7.67;;;;;;;;5437841;26;46648;-78
2024/04/19 09:28:47;;;;;;;;;8.67;8.67;;;;;;;;5441870;26;43215;-76
2024/04/19 09:31:13;;;;;;;;;6.67;5.00;;;;;;;;5445991;26;43203;-76
2024/04/19 09:33:41;;;;;;;;;14.00;12.67;;;;;;;;5431811;26;44998;-77
2024/04/19 09:36:06;;;;;;;;;5.33;5.33;;;;;;;;5432201;26;45011;-77
2024/04/19 09:38:35;;;;;;;;;7.67;7.67;;;;;;;;5431912;26;43983;-78
2024/04/19 09:41:02;;;;;;;;;7.00;7.00;;;;;;;;5429456;26;43904;-77
2024/04/19 09:43:30;;;;;;;;;7.00;5.00;;;;;;;;5432820;26;44004;-76
2024/04/19 09:45:59;;;;;;;;;6.67;5.67;;;;;;;;5430617;26;43623;-77
2024/04/19 09:48:26;;;;;;;;;7.67;6.00;;;;;;;;5429228;26;43912;-78
2024/04/19 09:50:56;;;;;;;;;7.00;7.00;;;;;;;;5427689;26;43946;-78
2024/04/19 09:53:26;;;;;;;;;7.67;7.67;;;;;;;;5433015;26;45160;-78
2024/04/19 09:56:05;;;;;;;;;6.67;6.67;;;;;;;;5428414;26;46268;-78
2024/04/19 09:58:31;;;;;;;;;12.00;10.00;;;;;;;;5442795;26;43922;-79
2024/04/19 10:00:56;;;;;;;;;8.33;8.00;;;;;;;;5430225;26;44049;-78
2024/04/19 10:03:22;;;;;;;;;7.00;7.00;;;;;;;;5429427;26;44765;-78
2024/04/19 10:05:48;;;;;;;;;9.00;7.00;;;;;;;;5430999;26;45019;-78
2024/04/19 10:08:13;;;;;;;;;7.00;6.00;;;;;;;;5432602;26;43840;-76
2024/04/19 10:10:39;;;;;;;;;7.67;7.67;;;;;;;;5428290;26;44385;-76
2024/04/19 10:13:04;;;;;;;;;5.67;5.67;;;;;;;;5427153;26;44998;-77
2024/04/19 10:15:29;;;;;;;;;11.67;9.00;;;;;;;;5426206;26;45966;-78
2024/04/19 10:17:54;;;;;;;;;8.67;7.67;;;;;;;;5427854;26;43852;-77
2024/04/19 10:20:22;;;;;;;;;7.00;7.00;;;;;;;;5430003;26;43912;-75
2024/04/19 10:22:49;;;;;;;;;8.33;7.00;;;;;;;;5429226;26;45798;-75
2024/04/19 10:25:19;;;;;;;;;8.33;8.00;;;;;;;;5430604;26;44966;-77
2024/04/19 10:27:46;;;;;;;;;8.00;6.67;;;;;;;;5432537;26;43915;-78
2024/04/19 10:30:13;;;;;;;;;8.00;8.00;;;;;;;;5421685;26;43744;-79
2024/04/19 10:32:38;;;;;;;;;5.00;5.00;;;;;;;;5422024;26;43921;-78
2024/04/19 10:35:04;;;;;;;;;4.33;4.00;;;;;;;;5426308;26;44194;-79
2024/04/19 10:37:29;;;;;;;;;9.33;9.00;;;;;;;;5421329;26;43782;-78
2024/04/19 10:39:54;;;;;;;;;10.67;9.33;;;;;;;;5431812;26;44046;-78
2024/04/19 10:42:20;;;;;;;;;10.00;10.00;;;;;;;;5427480;26;43786;-79
2024/04/19 10:44:48;;;;;;;;;9.67;8.33;;;;;;;;5431631;26;46050;-78
2024/04/19 10:47:13;;;;;;;;;5.33;5.33;;;;;;;;5432050;26;43226;-76
2024/04/19 10:49:38;;;;;;;;;10.67;9.67;;;;;;;;5417649;26;44057;-76
2024/04/19 10:52:04;;;;;;;;;8.00;8.00;;;;;;;;5410395;26;43842;-76
2024/04/19 10:54:30;;;;;;;;;8.33;8.00;;;;;;;;5432610;26;44871;-75
2024/04/19 10:56:55;;;;;;;;;7.00;7.00;;;;;;;;5436197;26;43970;-76
2024/04/19 10:59:20;;;;;;;;;6.00;6.00;;;;;;;;5445595;26;43845;-76
2024/04/19 11:01:46;;;;;;;;;8.33;8.33;;;;;;;;5431765;26;43852;-76
2024/04/19 11:04:12;;;;;;;;;7.67;6.67;;;;;;;;5431482;26;45138;-75
2024/04/19 11:06:37;;;;;;;;;5.67;5.67;;;;;;;;5432201;26;44034;-78
2024/04/19 11:09:03;;;;;;;;;10.33;7.33;;;;;;;;5430814;26;44075;-77
2024/04/19 11:11:36;;;;;;;;;7.67;7.67;;;;;;;;5429705;26;45552;-78
2024/04/19 11:14:01;;;;;;;;;8.33;6.33;;;;;;;;5431404;26;45028;-77
2024/04/19 11:16:27;;;;;;;;;6.67;6.33;;;;;;;;5430790;26;43804;-76
2024/04/19 11:18:52;;;;;;;;;10.67;8.33;;;;;;;;5429338;26;43853;-77
2024/04/19 11:21:17;;;;;;;;;7.33;5.00;;;;;;;;5409947;26;43970;-78
2024/04/19 11:23:42;;;;;;;;;7.67;7.67;;;;;;;;5429170;26;44849;-78
2024/04/19 11:26:08;;;;;;;;;5.67;5.00;;;;;;;;5429834;26;44370;-76
2024/04/19 11:28:33;;;;;;;;;6.33;6.00;;;;;;;;5430572;26;43983;-76
2024/04/19 11:31:07;;;;;;;;;7.33;7.33;;;;;;;;5422892;26;46022;-76
2024/04/19 11:33:32;;;;;;;;;4.67;3.67;;;;;;;;5417079;26;46981;-77
2024/04/19 11:35:57;;;;;;;;;9.00;8.00;;;;;;;;5428768;26;44583;-75
2024/04/19 11:38:23;;;;;;;;;8.00;8.00;;;;;;;;5430522;26;43904;-75
2024/04/19 11:40:50;;;;;;;;;8.00;7.67;;;;;;;;5431439;26;43906;-75
2024/04/19 11:43:16;;;;;;;;;6.00;6.00;;;;;;;;5429245;26;45261;-77
2024/04/19 11:45:44;;;;;;;;;6.33;6.00;;;;;;;;5411535;26;43884;-76
2024/04/19 11:48:16;;;;;;;;;7.00;7.00;;;;;;;;5413045;26;43799;-77
2024/04/19 11:50:41;;;;;;;;;8.00;6.33;;;;;;;;5422494;26;45009;-79
2024/04/19 11:53:06;;;;;;;;;5.33;5.33;;;;;;;;5414197;26;43906;-79
2024/04/19 11:55:31;;;;;;;;;5.67;5.67;;;;;;;;5432514;26;43877;-79
2024/04/19 11:57:58;;;;;;;;;5.67;5.67;;;;;;;;5430358;26;44119;-79
2024/04/19 12:00:23;;;;;;;;;5.33;5.33;;;;;;;;5433303;26;44145;-79
2024/04/19 12:02:49;;;;;;;;;7.00;5.67;;;;;;;;5433698;26;46027;-79
2024/04/19 12:05:14;;;;;;;;;5.33;5.00;;;;;;;;5434058;26;43833;-78
2024/04/19 12:07:39;;;;;;;;;6.67;6.67;;;;;;;;5431971;26;43974;-79
2024/04/19 12:10:05;;;;;;;;;5.33;5.33;;;;;;;;5434611;26;44166;-79
2024/04/19 12:12:30;;;;;;;;;6.33;6.33;;;;;;;;5410970;26;44895;-78
2024/04/19 12:14:55;;;;;;;;;6.00;3.00;;;;;;;;5414066;26;43982;-79
2024/04/19 12:17:22;;;;;;;;;6.33;3.33;;;;;;;;5426359;26;43181;-77
2024/04/19 12:19:48;;;;;;;;;6.00;6.00;;;;;;;;5432647;26;43762;-79
2024/04/19 12:22:15;;;;;;;;;3.67;3.67;;;;;;;;5434220;26;43778;-79
2024/04/19 12:24:40;;;;;;;;;5.67;5.67;;;;;;;;5430082;26;44679;-79
2024/04/19 12:40:58;;;;;;;;;6.33;5.33;;;;;14.21;100.00;101191.16;5467232;26;45124;-78
2024/04/19 12:43:23;;;;;;;;;5.33;5.33;;;;;14.29;100.00;101184.88;5447655;26;43779;-77
2024/04/19 12:45:50;;;;;;;;;2.00;2.00;;;;;14.31;100.00;101196.19;5446479;26;43837;-78
2024/04/19 12:48:15;;;;;;;;;6.00;5.00;;;;;14.31;100.00;101185.50;5445686;26;44039;-77
2024/04/19 12:50:40;;;;;;;;;5.33;5.33;;;;;14.24;100.00;101193.47;5475593;26;46596;-76
2024/04/19 12:53:06;;;;;;;;;2.33;2.33;;;;;14.28;100.00;101183.25;5424610;26;47637;-76
2024/04/19 12:55:32;;;;;;;;;6.00;6.00;;;;;14.26;100.00;101179.91;5436796;26;43866;-76
2024/04/19 12:57:58;;;;;;;;;5.00;5.00;;;;;14.32;100.00;101176.50;5447838;26;44640;-78
2024/04/19 13:00:23;;;;;;;;;4.00;4.00;;;;;14.44;100.00;101187.53;5437437;26;47171;-77
2024/04/19 13:02:49;;;;;;;;;1.00;1.00;;;;;14.52;100.00;101190.06;5441912;26;43928;-77
2024/04/19 13:05:15;;;;;;;;;3.33;2.67;;;;;14.43;100.00;101199.25;5446976;26;43920;-78
2024/04/19 13:07:41;;;;;;;;;3.67;3.33;;;;;14.56;100.00;101189.69;5446519;26;43784;-78
2024/04/19 13:10:08;;;;;;;;;3.67;2.33;;;;;14.43;100.00;101195.72;5446523;26;44959;-77
2024/04/19 13:12:34;;;;;;;;;2.33;2.33;;;;;14.44;100.00;101187.53;5445762;26;43962;-77
2024/04/19 13:14:59;;;;;;;;;2.00;2.00;;;;;14.50;100.00;101194.78;5446329;26;43845;-77
2024/04/19 13:17:25;;;;;;;;;1.00;1.00;;;;;14.38;100.00;101189.13;5443907;26;44605;-77
2024/04/19 13:19:50;;;;;;;;;2.33;2.00;;;;;14.33;100.00;101196.84;5475228;26;45850;-77
2024/04/19 13:22:18;;;;;;;;;3.00;3.00;;;;;14.44;100.00;101182.19;5446430;26;43867;-78
2024/04/19 13:24:44;;;;;;;;;4.00;2.67;;;;;14.44;100.00;101200.06;5446279;26;43937;-78
2024/04/19 13:27:09;;;;;;;;;2.67;2.67;;;;;14.43;100.00;101188.56;5474470;26;44454;-79
2024/04/19 13:29:35;;;;;;;;;4.67;4.67;;;;;14.42;100.00;101172.69;5445895;26;44729;-78
2024/04/19 13:32:02;;;;;;;;;3.00;3.00;;;;;14.44;100.00;101190.19;5446709;26;43922;-79
2024/04/19 13:34:27;;;;;;;;;2.67;2.67;;;;;14.42;100.00;101183.38;5446514;26;43809;-77
2024/04/19 13:36:53;;;;;;;;;3.00;2.67;;;;;14.41;100.00;101182.56;5445923;26;43963;-77
2024/04/19 13:39:18;;;;;;;;;3.00;3.00;;;;;14.36;100.00;101191.13;5446128;26;44046;-79
2024/04/19 13:41:44;;;;;;;;;3.33;3.33;;;;;14.34;100.00;101192.34;5432085;26;43822;-77
2024/04/19 13:44:09;;;;;;;;;2.00;2.00;;;;;14.27;100.00;101181.56;5458482;26;43841;-79
2024/04/19 13:46:35;;;;;;;;;5.33;4.67;;;;;14.11;100.00;101193.31;5458621;26;44757;-78
2024/04/19 13:49:00;;;;;;;;;7.67;7.33;;;;;13.84;100.00;101198.31;5431784;26;44290;-80
2024/04/19 13:51:25;;;;;;;;;4.00;4.00;;;;;13.60;100.00;101211.75;5431534;26;43744;-81
2024/04/19 13:53:52;;;;;;;;;6.33;6.33;;;;;13.56;100.00;101225.66;5432262;26;43737;-80
2024/04/19 13:56:17;;;;;;;;;5.33;4.67;;;;;13.39;100.00;101252.47;5437706;26;46076;-80
2024/04/19 13:58:43;;;;;;;;;5.67;5.00;;;;;13.25;100.00;101254.09;5429996;26;44946;-79
2024/04/19 14:01:12;;;;;;;;;7.00;5.67;;;;;13.30;100.00;101257.06;5430325;26;43888;-79
2024/04/19 14:03:39;;;;;;;;;2.33;2.33;;;;;13.16;100.00;101241.81;5432215;26;43898;-79
2024/04/19 14:06:04;;;;;;;;;4.00;3.00;;;;;13.06;100.00;101244.72;5430378;26;43914;-82
2024/04/19 14:08:29;;;;;;;;;2.67;2.67;;;;;13.00;100.00;101240.94;5422860;26;46805;-82
2024/04/19 14:10:55;;;;;;;;;4.33;4.00;;;;;13.02;100.00;101232.75;5444636;26;43714;-80
2024/04/19 14:13:20;;;;;;;;;5.00;3.33;;;;;12.95;100.00;101227.28;5422983;26;43645;-83
2024/04/19 14:15:46;;;;;;;;;7.67;5.33;;;;;12.80;100.00;101230.75;5428577;26;44771;-79
2024/04/19 14:18:11;;;;;;;;;3.67;3.67;;;;;12.61;100.00;101226.69;5430892;26;44683;-80